createdAt,value
2022-12-11T00:00:57.473Z,2.50
2022-12-11T00:03:25.469Z,2.50
2022-12-11T00:05:54.873Z,2.40
2022-12-11T00:08:22.875Z,2.40
2022-12-11T00:10:51.224Z,2.40
2022-12-11T00:13:19.289Z,2.40
2022-12-11T00:15:47.275Z,2.50
2022-12-11T00:18:15.496Z,2.60
2022-12-11T00:20:43.908Z,2.60
2022-12-11T00:23:13.418Z,2.50
2022-12-11T00:25:43.916Z,2.50
2022-12-11T00:28:12.304Z,2.50
2022-12-11T00:30:41.809Z,2.50
2022-12-11T00:33:11.950Z,2.50
2022-12-11T00:35:40.028Z,2.40
2022-12-11T00:38:08.355Z,2.40
2022-12-11T00:40:38.347Z,2.40
2022-12-11T00:43:06.397Z,2.60
2022-12-11T00:45:37.546Z,2.50
2022-12-11T00:48:06.377Z,2.50
2022-12-11T00:50:35.122Z,2.50
2022-12-11T00:53:03.559Z,2.60
2022-12-11T00:55:32.195Z,2.60
2022-12-11T00:58:01.493Z,2.80
2022-12-11T01:00:29.572Z,2.80
2022-12-11T01:02:57.611Z,2.80
2022-12-11T01:05:25.632Z,2.70
2022-12-11T01:07:54.012Z,2.80
2022-12-11T01:10:28.008Z,2.80
2022-12-11T01:12:58.403Z,2.80
2022-12-11T01:15:30.117Z,2.70
2022-12-11T01:17:58.284Z,2.70
2022-12-11T01:20:27.876Z,2.70
2022-12-11T01:22:57.314Z,2.70
2022-12-11T01:25:25.913Z,2.80
2022-12-11T01:27:55.536Z,2.80
2022-12-11T01:30:25.724Z,2.80
2022-12-11T01:32:55.134Z,2.80
2022-12-11T01:35:23.133Z,2.70
2022-12-11T01:37:51.221Z,2.70
2022-12-11T01:40:21.073Z,2.70
2022-12-11T01:42:49.091Z,2.70
2022-12-11T01:45:33.700Z,2.60
2022-12-11T01:48:08.014Z,2.60
2022-12-11T01:50:41.069Z,2.60
2022-12-11T01:53:13.641Z,2.60
2022-12-11T01:55:42.661Z,2.60
2022-12-11T01:58:12.972Z,2.60
2022-12-11T02:00:41.213Z,2.60
2022-12-11T02:03:10.807Z,2.50
2022-12-11T02:05:39.305Z,2.50
2022-12-11T02:08:08.929Z,2.50
2022-12-11T02:10:55.782Z,2.50
2022-12-11T02:13:30.905Z,2.50
2022-12-11T02:16:06.977Z,2.50
2022-12-11T02:18:43.188Z,2.50
2022-12-11T02:21:19.060Z,2.50
2022-12-11T02:24:16.142Z,2.40
2022-12-11T02:27:09.755Z,2.40
2022-12-11T02:29:43.267Z,2.40
2022-12-11T02:32:17.962Z,2.50
2022-12-11T02:34:50.331Z,2.50
2022-12-11T02:37:22.908Z,2.40
2022-12-11T02:39:55.133Z,2.40
2022-12-11T02:42:26.526Z,2.50
2022-12-11T02:44:57.753Z,2.40
2022-12-11T02:47:28.300Z,2.40
2022-12-11T02:49:58.664Z,2.40
2022-12-11T02:52:28.743Z,2.40
2022-12-11T02:54:59.501Z,2.50
2022-12-11T02:57:31.157Z,2.50
2022-12-11T03:00:00.672Z,2.50
2022-12-11T03:02:28.840Z,2.50
2022-12-11T03:04:57.761Z,2.50
2022-12-11T03:07:29.035Z,2.40
2022-12-11T03:09:57.037Z,2.40
2022-12-11T03:12:28.999Z,2.40
2022-12-11T03:14:59.370Z,2.40
2022-12-11T03:17:34.299Z,2.40
2022-12-11T03:20:13.067Z,2.40
2022-12-11T03:22:46.659Z,2.40
2022-12-11T03:25:20.147Z,2.50
2022-12-11T03:27:54.448Z,2.60
2022-12-11T03:30:26.131Z,2.60
2022-12-11T03:32:59.117Z,2.60
2022-12-11T03:35:32.104Z,2.70
2022-12-11T03:38:03.970Z,2.70
2022-12-11T03:40:35.521Z,2.70
2022-12-11T03:43:05.899Z,2.60
2022-12-11T03:45:35.123Z,2.70
2022-12-11T03:48:04.884Z,2.80
2022-12-11T03:50:35.268Z,2.80
2022-12-11T03:53:04.718Z,2.80
2022-12-11T03:55:34.808Z,2.70
2022-12-11T03:58:02.859Z,2.70
2022-12-11T04:00:31.136Z,2.70
2022-12-11T04:03:14.941Z,2.70
2022-12-11T04:05:47.455Z,2.70
2022-12-11T04:08:16.022Z,2.80
2022-12-11T04:10:44.487Z,2.80
2022-12-11T04:13:12.664Z,2.70
2022-12-11T04:15:40.564Z,2.80
2022-12-11T04:18:26.896Z,2.80
2022-12-11T04:21:14.576Z,2.80
2022-12-11T04:24:00.156Z,2.70
2022-12-11T04:26:28.273Z,2.60
2022-12-11T04:28:56.234Z,2.60
2022-12-11T04:31:24.487Z,2.70
2022-12-11T04:33:53.192Z,2.60
2022-12-11T04:36:22.634Z,2.70
2022-12-11T04:38:50.707Z,2.70
2022-12-11T04:41:18.867Z,2.80
2022-12-11T04:43:46.861Z,2.80
2022-12-11T04:46:19.585Z,2.80
2022-12-11T04:48:52.440Z,2.70
2022-12-11T04:51:25.022Z,2.70
2022-12-11T04:53:53.444Z,2.80
2022-12-11T04:56:22.267Z,2.70
2022-12-11T04:58:50.325Z,2.70
2022-12-11T05:01:20.142Z,2.60
2022-12-11T05:03:48.337Z,2.60
2022-12-11T05:06:16.675Z,2.70
2022-12-11T05:08:46.479Z,2.70
2022-12-11T05:11:16.353Z,2.70
2022-12-11T05:13:45.321Z,2.70
2022-12-11T05:16:15.925Z,2.60
2022-12-11T05:18:43.969Z,2.70
2022-12-11T05:21:13.481Z,2.60
2022-12-11T05:23:42.278Z,2.70
2022-12-11T05:26:15.056Z,2.70
2022-12-11T05:28:43.465Z,2.70
2022-12-11T05:31:14.689Z,2.70
2022-12-11T05:33:42.746Z,2.70
2022-12-11T05:36:14.841Z,2.70
2022-12-11T05:38:42.828Z,2.70
2022-12-11T05:41:15.101Z,2.80
2022-12-11T05:43:43.489Z,2.70
2022-12-11T05:46:13.813Z,2.80
2022-12-11T05:48:42.887Z,2.90
2022-12-11T05:51:11.474Z,2.90
2022-12-11T05:53:40.587Z,2.90
2022-12-11T05:56:11.784Z,2.90
2022-12-11T05:58:42.103Z,2.80
2022-12-11T06:01:12.101Z,2.80
2022-12-11T06:03:40.416Z,2.70
2022-12-11T06:06:08.897Z,2.70
2022-12-11T06:08:37.151Z,2.70
2022-12-11T06:11:06.131Z,2.70
2022-12-11T06:13:35.375Z,2.60
2022-12-11T06:16:06.485Z,2.70
2022-12-11T06:18:37.708Z,2.60
2022-12-11T06:21:13.407Z,2.70
2022-12-11T06:23:42.424Z,2.70
2022-12-11T06:26:10.526Z,2.80
2022-12-11T06:28:38.734Z,2.80
2022-12-11T06:31:08.865Z,2.80
2022-12-11T06:33:37.227Z,2.80
2022-12-11T06:36:06.698Z,2.70
2022-12-11T06:38:34.688Z,2.70
2022-12-11T06:41:04.782Z,2.70
2022-12-11T06:43:32.939Z,2.60
2022-12-11T06:46:03.984Z,2.70
2022-12-11T06:48:34.703Z,2.70
2022-12-11T06:51:07.575Z,2.70
2022-12-11T06:53:35.635Z,2.70
2022-12-11T06:56:05.232Z,2.70
2022-12-11T06:58:35.136Z,2.60
2022-12-11T07:01:03.307Z,2.60
2022-12-11T07:03:33.450Z,2.60
2022-12-11T07:06:02.380Z,2.60
2022-12-11T07:08:31.916Z,2.70
2022-12-11T07:11:04.937Z,2.80
2022-12-11T07:13:33.680Z,2.80
2022-12-11T07:16:02.205Z,2.90
2022-12-11T07:18:30.228Z,2.90
2022-12-11T07:21:01.064Z,2.90
2022-12-11T07:23:29.526Z,2.90
2022-12-11T07:25:58.658Z,3.00
2022-12-11T07:28:27.031Z,2.90
2022-12-11T07:30:54.981Z,2.90
2022-12-11T07:33:22.925Z,2.90
2022-12-11T07:35:50.876Z,2.70
2022-12-11T07:38:20.191Z,2.80
2022-12-11T07:40:48.171Z,2.80
2022-12-11T07:43:16.109Z,2.70
2022-12-11T07:45:44.149Z,2.70
2022-12-11T07:48:12.771Z,2.70
2022-12-11T07:50:40.732Z,2.70
2022-12-11T07:53:08.795Z,2.70
2022-12-11T07:55:38.099Z,2.70
2022-12-11T07:58:06.276Z,2.70
2022-12-11T08:00:34.292Z,2.70
2022-12-11T08:03:02.243Z,2.70
2022-12-11T08:05:30.450Z,2.80
2022-12-11T08:07:58.531Z,2.70
2022-12-11T08:10:27.440Z,2.70
2022-12-11T08:12:56.776Z,2.70
2022-12-11T08:15:24.795Z,2.80
2022-12-11T08:17:52.778Z,2.80
2022-12-11T08:20:21.287Z,2.80
2022-12-11T08:22:49.242Z,2.80
2022-12-11T08:25:17.357Z,2.80
2022-12-11T08:27:45.334Z,2.80
2022-12-11T08:30:15.144Z,2.80
2022-12-11T08:32:43.561Z,2.80
2022-12-11T08:35:11.925Z,2.80
2022-12-11T08:37:40.167Z,2.80
2022-12-11T08:40:10.763Z,2.80
2022-12-11T08:42:38.765Z,2.80
2022-12-11T08:45:08.436Z,2.90
2022-12-11T08:47:38.533Z,2.90
2022-12-11T08:50:07.220Z,2.90
2022-12-11T08:52:36.052Z,2.90
2022-12-11T08:55:04.287Z,2.90
2022-12-11T08:57:32.256Z,2.90
2022-12-11T09:00:00.220Z,3.00
2022-12-11T09:02:28.374Z,3.00
2022-12-11T09:04:57.733Z,3.00
2022-12-11T09:07:26.372Z,2.90
2022-12-11T09:09:55.677Z,3.00
2022-12-11T09:12:23.658Z,3.00
2022-12-11T09:14:51.671Z,3.00
2022-12-11T09:17:19.711Z,3.00
2022-12-11T09:19:47.786Z,3.00
2022-12-11T09:22:17.575Z,3.10
2022-12-11T09:24:46.290Z,3.10
2022-12-11T09:27:14.297Z,3.10
2022-12-11T09:29:42.470Z,3.10
2022-12-11T09:32:10.672Z,3.10
2022-12-11T09:34:38.662Z,3.10
2022-12-11T09:37:06.659Z,3.10
2022-12-11T09:39:36.281Z,3.10
2022-12-11T09:42:10.340Z,3.10
2022-12-11T09:44:44.451Z,3.10
2022-12-11T09:47:25.845Z,3.10
2022-12-11T09:49:59.701Z,3.10
2022-12-11T09:52:35.537Z,3.20
2022-12-11T09:55:15.077Z,3.20
2022-12-11T09:57:50.765Z,3.20
2022-12-11T10:00:27.458Z,3.20
2022-12-11T10:03:27.351Z,3.20
2022-12-11T10:06:04.568Z,3.10
2022-12-11T10:08:40.106Z,3.10
2022-12-11T10:11:31.695Z,3.10
2022-12-11T10:14:07.532Z,3.20
2022-12-11T10:16:40.234Z,3.20
2022-12-11T10:19:17.409Z,3.20
2022-12-11T10:21:47.070Z,3.20
2022-12-11T10:24:48.949Z,3.20
2022-12-11T10:27:21.274Z,3.20
2022-12-11T10:29:53.827Z,3.30
2022-12-11T10:32:25.546Z,3.20
2022-12-11T10:35:00.230Z,3.20
2022-12-11T10:37:28.326Z,3.30
2022-12-11T10:39:56.347Z,3.20
2022-12-11T10:42:25.704Z,3.30
2022-12-11T10:44:58.733Z,3.40
2022-12-11T10:47:26.942Z,3.40
2022-12-11T10:49:58.211Z,3.40
2022-12-11T10:52:28.935Z,3.50
2022-12-11T10:55:01.655Z,3.50
2022-12-11T10:57:35.033Z,3.40
2022-12-11T11:00:06.140Z,3.40
2022-12-11T11:02:37.987Z,3.30
2022-12-11T11:05:15.071Z,3.30
2022-12-11T11:07:43.412Z,3.30
2022-12-11T11:10:17.920Z,3.30
2022-12-11T11:12:48.861Z,3.30
2022-12-11T11:15:19.995Z,3.30
2022-12-11T11:17:54.963Z,3.20
2022-12-11T11:20:26.823Z,3.30
2022-12-11T11:22:57.535Z,3.30
2022-12-11T11:25:27.517Z,3.30
2022-12-11T11:27:59.120Z,3.30
2022-12-11T11:30:30.162Z,3.30
2022-12-11T11:33:00.767Z,3.40
2022-12-11T11:35:30.305Z,3.40
2022-12-11T11:38:04.853Z,3.40
2022-12-11T11:40:38.360Z,3.40
2022-12-11T11:43:16.731Z,3.40
2022-12-11T11:45:52.531Z,3.40
2022-12-11T11:48:36.706Z,3.50
2022-12-11T11:51:15.244Z,3.50
2022-12-11T11:53:48.494Z,3.60
2022-12-11T11:56:22.468Z,3.60
2022-12-11T11:59:01.096Z,3.60
2022-12-11T12:01:29.880Z,3.60
2022-12-11T12:03:58.505Z,3.60
2022-12-11T12:06:42.029Z,3.60
2022-12-11T12:09:25.136Z,3.50
2022-12-11T12:12:00.343Z,3.50
2022-12-11T12:17:31.263Z,3.60
2022-12-11T12:20:12.205Z,3.60
2022-12-11T12:22:58.367Z,3.70
2022-12-11T12:25:30.846Z,3.70
2022-12-11T12:28:11.633Z,3.70
2022-12-11T12:30:50.033Z,3.70
2022-12-11T12:33:28.030Z,3.60
2022-12-11T12:36:07.296Z,3.70
2022-12-11T12:38:43.545Z,3.70
2022-12-11T12:41:19.564Z,3.70
2022-12-11T12:44:13.483Z,3.70
2022-12-11T12:46:51.701Z,3.80
2022-12-11T12:49:31.569Z,3.80
2022-12-11T12:52:02.943Z,3.80
2022-12-11T12:54:32.731Z,4.00
2022-12-11T12:57:04.061Z,4.00
2022-12-11T12:59:32.170Z,4.00
2022-12-11T13:02:03.774Z,4.00
2022-12-11T13:04:56.026Z,4.00
2022-12-11T13:07:29.996Z,4.10
2022-12-11T13:10:01.428Z,4.10
2022-12-11T13:12:35.665Z,4.10
2022-12-11T13:15:03.689Z,4.10
2022-12-11T13:17:39.932Z,4.10
2022-12-11T13:20:17.878Z,4.10
2022-12-11T13:23:05.214Z,4.10
2022-12-11T13:25:45.923Z,4.10
2022-12-11T13:28:23.673Z,4.00
2022-12-11T13:31:06.406Z,4.00
2022-12-11T13:33:43.366Z,3.90
2022-12-11T13:36:29.710Z,3.90
2022-12-11T13:39:02.082Z,3.90
2022-12-11T13:41:31.280Z,3.90
2022-12-11T13:43:59.827Z,3.90
2022-12-11T13:46:32.310Z,4.00
2022-12-11T13:49:04.853Z,4.00
2022-12-11T13:51:35.086Z,4.00
2022-12-11T13:54:16.647Z,4.00
2022-12-11T13:56:55.915Z,4.00
2022-12-11T13:59:27.862Z,4.00
2022-12-11T14:01:59.997Z,3.90
2022-12-11T14:04:31.333Z,3.80
2022-12-11T14:07:00.082Z,3.80
2022-12-11T14:09:29.475Z,3.80
2022-12-11T14:11:59.202Z,3.80
2022-12-11T14:14:40.120Z,3.90
2022-12-11T14:17:12.420Z,3.90
2022-12-11T14:19:46.754Z,3.80
2022-12-11T14:22:19.681Z,3.80
2022-12-11T14:24:52.176Z,3.80
2022-12-11T14:27:20.729Z,3.90
2022-12-11T14:29:50.027Z,3.80
2022-12-11T14:32:21.919Z,3.80
2022-12-11T14:34:52.311Z,3.80
2022-12-11T14:37:24.205Z,3.80
2022-12-11T14:39:58.765Z,3.80
2022-12-11T14:42:31.169Z,3.80
2022-12-11T14:45:07.988Z,3.80
2022-12-11T14:47:40.389Z,3.80
2022-12-11T14:50:19.764Z,3.90
2022-12-11T14:52:51.923Z,3.80
2022-12-11T14:55:23.684Z,3.90
2022-12-11T14:57:55.519Z,3.80
2022-12-11T15:00:25.447Z,3.80
2022-12-11T15:03:01.788Z,3.80
2022-12-11T15:05:37.191Z,3.70
2022-12-11T15:08:24.725Z,3.70
2022-12-11T15:11:04.463Z,3.70
2022-12-11T15:13:33.868Z,3.60
2022-12-11T15:16:02.461Z,3.70
2022-12-11T15:18:33.670Z,3.70
2022-12-11T15:21:06.930Z,3.70
2022-12-11T15:23:40.490Z,3.70
2022-12-11T15:26:08.697Z,3.60
2022-12-11T15:28:38.702Z,3.60
2022-12-11T15:31:08.940Z,3.60
2022-12-11T15:33:47.646Z,3.60
2022-12-11T15:36:27.051Z,3.60
2022-12-11T15:38:55.099Z,3.60
2022-12-11T15:41:24.593Z,3.50
2022-12-11T15:43:58.665Z,3.60
2022-12-11T15:46:27.501Z,3.60
2022-12-11T15:48:57.465Z,3.50
2022-12-11T15:51:27.603Z,3.50
2022-12-11T15:53:55.663Z,3.50
2022-12-11T15:56:23.771Z,3.50
2022-12-11T15:58:51.873Z,3.50
2022-12-11T16:01:19.914Z,3.50
2022-12-11T16:03:50.234Z,3.60
2022-12-11T16:06:18.256Z,3.50
2022-12-11T16:08:48.018Z,3.50
2022-12-11T16:11:16.100Z,3.50
2022-12-11T16:13:45.255Z,3.50
2022-12-11T16:16:13.325Z,3.50
2022-12-11T16:18:41.477Z,3.50
2022-12-11T16:21:09.495Z,3.50
2022-12-11T16:23:37.848Z,3.60
2022-12-11T16:26:10.469Z,3.50
2022-12-11T16:28:38.520Z,3.60
2022-12-11T16:31:11.557Z,3.60
2022-12-11T16:33:40.236Z,3.50
2022-12-11T16:36:19.632Z,3.50
2022-12-11T16:38:53.427Z,3.50
2022-12-11T16:41:23.804Z,3.60
2022-12-11T16:43:51.873Z,3.60
2022-12-11T16:46:21.225Z,3.60
2022-12-11T16:48:49.589Z,3.60
2022-12-11T16:51:18.352Z,3.50
2022-12-11T16:53:47.099Z,3.50
2022-12-11T16:56:15.230Z,3.50
2022-12-11T16:58:44.643Z,3.50
2022-12-11T17:01:13.873Z,3.40
2022-12-11T17:03:42.938Z,3.50
2022-12-11T17:06:12.884Z,3.50
2022-12-11T17:08:42.590Z,3.50
2022-12-11T17:11:12.492Z,3.50
2022-12-11T17:13:40.840Z,3.50
2022-12-11T17:16:13.164Z,3.50
2022-12-11T17:18:41.626Z,3.50
2022-12-11T17:21:11.685Z,3.50
2022-12-11T17:23:40.281Z,3.40
2022-12-11T17:26:10.749Z,3.50
2022-12-11T17:28:39.495Z,3.40
2022-12-11T17:31:08.845Z,3.50
2022-12-11T17:33:40.902Z,3.50
2022-12-11T17:36:10.068Z,3.50
2022-12-11T17:38:38.158Z,3.50
2022-12-11T17:41:11.424Z,3.50
2022-12-11T17:43:43.370Z,3.50
2022-12-11T17:46:12.488Z,3.40
2022-12-11T17:48:42.349Z,3.50
2022-12-11T17:51:12.584Z,3.50
2022-12-11T17:53:41.200Z,3.50
2022-12-11T17:56:09.885Z,3.40
2022-12-11T17:58:37.812Z,3.40
2022-12-11T18:01:09.564Z,3.50
2022-12-11T18:03:38.471Z,3.50
2022-12-11T18:06:10.751Z,3.50
2022-12-11T18:08:39.272Z,3.50
2022-12-11T18:11:08.576Z,3.50
2022-12-11T18:13:37.033Z,3.40
2022-12-11T18:16:07.067Z,3.40
2022-12-11T18:18:35.735Z,3.40
2022-12-11T18:21:04.216Z,3.40
2022-12-11T18:23:33.960Z,3.40
2022-12-11T18:26:01.935Z,3.30
2022-12-11T18:28:32.229Z,3.30
2022-12-11T18:31:01.663Z,3.30
2022-12-11T18:33:29.831Z,3.40
2022-12-11T18:35:58.040Z,3.40
2022-12-11T18:38:26.012Z,3.50
2022-12-11T18:40:55.381Z,3.40
2022-12-11T18:43:23.359Z,3.40
2022-12-11T18:45:51.857Z,3.40
2022-12-11T18:48:19.826Z,3.40
2022-12-11T18:50:49.431Z,3.40
2022-12-11T18:53:18.378Z,3.40
2022-12-11T18:55:48.681Z,3.30
2022-12-11T18:58:20.529Z,3.40
2022-12-11T19:00:48.667Z,3.40
2022-12-11T19:03:16.648Z,3.40
2022-12-11T19:05:44.912Z,3.50
2022-12-11T19:08:16.343Z,3.50
2022-12-11T19:10:45.658Z,3.40
2022-12-11T19:13:14.380Z,3.30
2022-12-11T19:15:44.870Z,3.30
2022-12-11T19:18:12.961Z,3.30
2022-12-11T19:20:55.656Z,3.30
2022-12-11T19:23:31.810Z,3.30
2022-12-11T19:25:59.749Z,3.40
2022-12-11T19:28:27.696Z,3.40
2022-12-11T19:30:57.143Z,3.40
2022-12-11T19:33:25.192Z,3.40
2022-12-11T19:36:02.019Z,3.40
2022-12-11T19:38:30.005Z,3.40
2022-12-11T19:40:58.166Z,3.40
2022-12-11T19:43:26.215Z,3.40
2022-12-11T19:45:54.245Z,3.40
2022-12-11T19:48:23.984Z,3.40
2022-12-11T19:50:51.932Z,3.40
2022-12-11T19:53:21.212Z,3.40
2022-12-11T19:55:51.714Z,3.30
2022-12-11T19:58:20.678Z,3.20
2022-12-11T20:00:48.848Z,3.30
2022-12-11T20:03:16.855Z,3.30
2022-12-11T20:05:46.329Z,3.30
2022-12-11T20:08:43.143Z,3.30
2022-12-11T20:11:05.572Z,3.20
2022-12-11T20:13:36.437Z,3.30
2022-12-11T20:16:07.290Z,3.30
2022-12-11T20:18:36.050Z,3.20
2022-12-11T20:21:07.339Z,3.20
2022-12-11T20:23:36.129Z,3.20
2022-12-11T20:26:08.925Z,3.20
2022-12-11T20:28:37.227Z,3.20
2022-12-11T20:31:07.186Z,3.20
2022-12-11T20:33:35.540Z,3.20
2022-12-11T20:36:08.869Z,3.20
2022-12-11T20:38:37.220Z,3.20
2022-12-11T20:41:05.443Z,3.20
2022-12-11T20:43:34.596Z,3.20
2022-12-11T20:46:02.991Z,3.20
2022-12-11T20:48:31.153Z,3.20
2022-12-11T20:51:01.213Z,3.30
2022-12-11T20:53:30.714Z,3.40
2022-12-11T20:55:59.017Z,3.30
2022-12-11T20:58:27.075Z,3.40
2022-12-11T21:00:55.240Z,3.30
2022-12-11T21:03:23.278Z,3.30
2022-12-11T21:05:51.324Z,3.20
2022-12-11T21:08:19.414Z,3.20
2022-12-11T21:10:48.770Z,3.30
2022-12-11T21:13:17.248Z,3.30
2022-12-11T21:15:45.234Z,3.30
2022-12-11T21:18:13.219Z,3.20
2022-12-11T21:20:41.166Z,3.20
2022-12-11T21:23:09.135Z,3.20
2022-12-11T21:25:40.462Z,3.20
2022-12-11T21:28:09.883Z,3.30
2022-12-11T21:30:41.208Z,3.30
2022-12-11T21:33:09.276Z,3.20
2022-12-11T21:35:37.350Z,3.20
2022-12-11T21:38:05.838Z,3.20
2022-12-11T21:40:33.875Z,3.20
2022-12-11T21:43:01.843Z,3.10
2022-12-11T21:45:59.766Z,3.10
2022-12-11T21:48:19.136Z,3.00
2022-12-11T21:50:47.183Z,3.00
2022-12-11T21:53:15.222Z,3.00
2022-12-11T21:55:43.536Z,2.90
2022-12-11T21:58:11.629Z,2.90
2022-12-11T22:00:41.058Z,2.80
2022-12-11T22:03:09.156Z,2.70
2022-12-11T22:05:37.148Z,2.70
2022-12-11T22:08:05.394Z,2.60
2022-12-11T22:10:33.559Z,2.60
2022-12-11T22:13:01.676Z,2.60
2022-12-11T22:15:29.675Z,2.60
2022-12-11T22:17:59.058Z,2.70
2022-12-11T22:20:27.039Z,2.70
2022-12-11T22:22:55.095Z,2.70
2022-12-11T22:25:23.200Z,2.70
2022-12-11T22:27:51.631Z,2.70
2022-12-11T22:30:19.784Z,2.90
2022-12-11T22:32:49.635Z,3.00
2022-12-11T22:35:20.968Z,3.00
2022-12-11T22:37:52.819Z,3.00
2022-12-11T22:40:20.938Z,2.90
2022-12-11T22:42:48.986Z,2.80
2022-12-11T22:45:17.128Z,2.70
2022-12-11T22:47:47.660Z,2.70
2022-12-11T22:50:16.814Z,2.70
2022-12-11T22:52:46.304Z,2.60
2022-12-11T22:55:14.734Z,2.60
2022-12-11T22:57:42.886Z,2.70
2022-12-11T23:00:13.613Z,2.60
2022-12-11T23:02:42.816Z,2.60
2022-12-11T23:05:12.276Z,2.70
2022-12-11T23:07:48.325Z,2.60
2022-12-11T23:10:18.726Z,2.70
2022-12-11T23:12:46.664Z,2.70
2022-12-11T23:15:14.841Z,2.70
2022-12-11T23:17:43.135Z,2.70
2022-12-11T23:20:11.841Z,2.70
2022-12-11T23:22:39.921Z,2.70
2022-12-11T23:25:08.667Z,2.80
2022-12-11T23:27:37.965Z,2.70
2022-12-11T23:30:06.895Z,2.70
2022-12-11T23:32:34.881Z,2.80
2022-12-11T23:35:03.031Z,2.80
2022-12-11T23:37:30.993Z,2.90
2022-12-11T23:39:59.014Z,3.00
2022-12-11T23:42:26.985Z,2.90
2022-12-11T23:44:56.444Z,2.90
2022-12-11T23:47:24.452Z,2.90
2022-12-11T23:49:52.430Z,2.90
2022-12-11T23:52:22.512Z,2.90
2022-12-11T23:54:52.389Z,3.00
2022-12-11T23:57:20.338Z,3.00
2022-12-11T23:59:48.280Z,3.00
